createdAt,value
2022-07-25T00:00:53.997Z,89.96
2022-07-25T00:01:54.053Z,89.96
2022-07-25T00:02:54.003Z,89.96
2022-07-25T00:03:53.999Z,90.11
2022-07-25T00:04:54.442Z,89.90
2022-07-25T00:05:53.975Z,89.90
2022-07-25T00:06:53.934Z,89.80
2022-07-25T00:07:53.910Z,90.20
2022-07-25T00:08:53.895Z,90.41
2022-07-25T00:09:53.883Z,90.20
2022-07-25T00:10:54.261Z,90.20
2022-07-25T00:11:53.862Z,90.41
2022-07-25T00:12:53.843Z,90.50
2022-07-25T00:13:53.824Z,90.30
2022-07-25T00:14:53.828Z,90.30
2022-07-25T00:15:53.889Z,90.41
2022-07-25T00:16:54.109Z,90.61
2022-07-25T00:17:53.773Z,90.50
2022-07-25T00:18:53.768Z,90.61
2022-07-25T00:19:53.752Z,90.30
2022-07-25T00:20:53.762Z,90.30
2022-07-25T00:21:54.154Z,90.20
2022-07-25T00:22:53.721Z,90.30
2022-07-25T00:23:53.702Z,91.01
2022-07-25T00:24:53.693Z,91.11
2022-07-25T00:25:53.699Z,90.91
2022-07-25T00:26:53.687Z,91.11
2022-07-25T00:27:53.989Z,91.01
2022-07-25T00:28:53.640Z,91.61
2022-07-25T00:29:53.621Z,91.41
2022-07-25T00:30:53.679Z,91.01
2022-07-25T00:31:53.602Z,90.91
2022-07-25T00:32:53.598Z,90.75
2022-07-25T00:33:53.930Z,90.85
2022-07-25T00:34:53.571Z,90.85
2022-07-25T00:35:53.548Z,91.35
2022-07-25T00:36:53.538Z,91.55
2022-07-25T00:37:53.520Z,92.16
2022-07-25T00:38:53.582Z,92.26
2022-07-25T00:39:53.505Z,92.06
2022-07-25T00:40:54.658Z,92.46
2022-07-25T00:41:53.469Z,92.96
2022-07-25T00:42:53.465Z,93.07
2022-07-25T00:43:53.449Z,92.96
2022-07-25T00:44:53.772Z,93.16
2022-07-25T00:45:53.435Z,93.37
2022-07-25T00:46:53.522Z,92.76
2022-07-25T00:47:53.398Z,92.76
2022-07-25T00:48:53.429Z,92.46
2022-07-25T00:49:53.687Z,92.26
2022-07-25T00:50:53.363Z,92.86
2022-07-25T00:51:53.347Z,92.56
2022-07-25T00:52:53.336Z,92.46
2022-07-25T00:53:53.359Z,92.66
2022-07-25T00:54:53.738Z,92.36
2022-07-25T00:55:53.295Z,92.10
2022-07-25T00:56:53.295Z,92.10
2022-07-25T00:57:53.283Z,92.50
2022-07-25T00:58:53.256Z,92.30
2022-07-25T00:59:53.247Z,93.31
2022-07-25T01:00:53.587Z,93.51
2022-07-25T01:01:53.282Z,93.01
2022-07-25T01:02:53.222Z,93.21
2022-07-25T01:03:53.186Z,92.71
2022-07-25T01:04:53.601Z,92.50
2022-07-25T01:05:53.853Z,92.45
2022-07-25T01:06:53.168Z,93.05
2022-07-25T01:07:53.135Z,93.26
2022-07-25T01:08:53.125Z,93.46
2022-07-25T01:09:53.555Z,93.66
2022-07-25T01:10:53.103Z,94.26
2022-07-25T01:11:53.085Z,94.26
2022-07-25T01:12:53.078Z,94.16
2022-07-25T01:13:53.075Z,94.42
2022-07-25T01:14:53.056Z,94.32
2022-07-25T01:15:53.451Z,94.52
2022-07-25T01:16:53.024Z,94.32
2022-07-25T01:17:53.043Z,94.12
2022-07-25T01:18:52.993Z,94.21
2022-07-25T01:19:53.002Z,94.01
2022-07-25T01:20:53.393Z,94.12
2022-07-25T01:21:52.966Z,94.12
2022-07-25T01:22:52.949Z,94.01
2022-07-25T01:23:52.923Z,93.91
2022-07-25T01:24:52.937Z,93.61
2022-07-25T01:25:52.903Z,93.35
2022-07-25T01:26:53.331Z,93.26
2022-07-25T01:27:55.128Z,93.66
2022-07-25T01:28:52.873Z,94.51
2022-07-25T01:29:52.883Z,94.91
2022-07-25T01:30:52.866Z,95.21
2022-07-25T01:31:53.243Z,95.01
2022-07-25T01:32:52.814Z,95.01
2022-07-25T01:33:52.814Z,94.91
2022-07-25T01:34:52.792Z,95.01
2022-07-25T01:35:52.781Z,95.21
2022-07-25T01:36:53.201Z,95.21
2022-07-25T01:37:52.764Z,95.81
2022-07-25T01:38:54.010Z,95.72
2022-07-25T01:39:52.721Z,95.66
2022-07-25T01:40:52.714Z,95.72
2022-07-25T01:41:53.023Z,95.76
2022-07-25T01:42:52.698Z,95.86
2022-07-25T01:43:52.675Z,95.86
2022-07-25T01:44:52.663Z,95.96
2022-07-25T01:45:52.653Z,95.86
2022-07-25T01:46:53.049Z,95.76
2022-07-25T01:47:52.621Z,96.06
2022-07-25T01:48:52.677Z,96.06
2022-07-25T01:49:52.620Z,96.06
2022-07-25T01:50:52.596Z,95.36
2022-07-25T01:51:52.992Z,95.46
2022-07-25T01:52:52.561Z,96.06
2022-07-25T01:53:52.546Z,96.36
2022-07-25T01:54:52.558Z,96.26
2022-07-25T01:55:52.518Z,96.56
2022-07-25T01:56:52.920Z,96.87
2022-07-25T01:57:52.493Z,96.67
2022-07-25T01:58:52.498Z,96.56
2022-07-25T01:59:52.476Z,96.47
2022-07-25T02:00:52.467Z,96.67
2022-07-25T02:01:52.922Z,96.56
2022-07-25T02:02:52.438Z,96.77
2022-07-25T02:03:52.418Z,96.97
2022-07-25T02:04:52.547Z,96.87
2022-07-25T02:05:52.767Z,96.87
2022-07-25T02:06:52.383Z,96.77
2022-07-25T02:07:52.368Z,96.36
2022-07-25T02:08:52.381Z,96.26
2022-07-25T02:09:56.532Z,96.31
2022-07-25T02:10:52.697Z,96.21
2022-07-25T02:11:52.309Z,96.01
2022-07-25T02:12:52.307Z,96.31
2022-07-25T02:13:52.287Z,96.81
2022-07-25T02:14:52.288Z,96.81
2022-07-25T02:15:52.647Z,96.92
2022-07-25T02:16:52.370Z,96.92
2022-07-25T02:17:52.231Z,96.71
2022-07-25T02:18:52.225Z,96.81
2022-07-25T02:19:52.208Z,96.51
2022-07-25T02:20:52.549Z,96.71
2022-07-25T02:21:52.182Z,97.12
2022-07-25T02:22:52.175Z,97.52
2022-07-25T02:23:52.154Z,97.82
2022-07-25T02:24:52.148Z,98.02
2022-07-25T02:25:52.475Z,97.92
2022-07-25T02:26:52.119Z,98.02
2022-07-25T02:27:52.125Z,98.22
2022-07-25T02:28:52.091Z,98.02
2022-07-25T02:29:52.075Z,97.82
2022-07-25T02:30:52.595Z,97.82
2022-07-25T02:31:52.086Z,97.92
2022-07-25T02:32:52.035Z,97.92
2022-07-25T02:33:52.024Z,98.02
2022-07-25T02:34:52.028Z,97.82
2022-07-25T02:35:52.393Z,97.87
2022-07-25T02:36:52.001Z,97.77
2022-07-25T02:37:51.973Z,97.67
2022-07-25T02:38:51.971Z,97.47
2022-07-25T02:39:52.301Z,97.47
2022-07-25T02:40:51.943Z,97.47
2022-07-25T02:41:51.942Z,97.47
2022-07-25T02:42:51.913Z,97.47
2022-07-25T02:43:51.894Z,97.47
2022-07-25T02:44:52.325Z,97.87
2022-07-25T02:45:51.892Z,97.97
2022-07-25T02:46:51.862Z,97.97
2022-07-25T02:47:51.852Z,97.87
2022-07-25T02:48:51.886Z,97.77
2022-07-25T02:49:52.239Z,97.67
2022-07-25T02:50:51.829Z,97.47
2022-07-25T02:51:51.804Z,97.27
2022-07-25T02:52:51.780Z,97.36
2022-07-25T02:53:57.610Z,97.56
2022-07-25T02:56:02.364Z,98.47
2022-07-25T02:57:10.006Z,98.47
2022-07-25T02:58:08.931Z,98.32
2022-07-25T02:59:01.913Z,98.42
2022-07-25T03:00:02.264Z,98.62
2022-07-25T03:01:01.946Z,98.72
2022-07-25T03:02:01.853Z,98.72
2022-07-25T03:03:01.826Z,98.82
2022-07-25T03:04:02.300Z,98.62
2022-07-25T03:05:01.853Z,98.93
2022-07-25T03:06:01.803Z,99.33
2022-07-25T03:07:01.782Z,99.63
2022-07-25T03:08:01.781Z,99.53
2022-07-25T03:09:02.202Z,99.33
2022-07-25T03:10:01.744Z,99.33
2022-07-25T03:11:02.723Z,99.53
2022-07-25T03:12:01.715Z,99.43
2022-07-25T03:13:01.702Z,99.33
2022-07-25T03:14:02.061Z,99.22
2022-07-25T03:15:01.693Z,99.33
2022-07-25T03:16:01.683Z,99.53
2022-07-25T03:17:01.725Z,99.63
2022-07-25T03:18:01.653Z,99.84
2022-07-25T03:19:02.060Z,99.93
2022-07-25T03:20:01.634Z,99.88
2022-07-25T03:21:01.611Z,99.68
2022-07-25T03:22:01.590Z,99.08
2022-07-25T03:23:01.571Z,98.98
2022-07-25T03:24:01.996Z,98.78
2022-07-25T03:25:01.560Z,98.37
2022-07-25T03:26:01.562Z,98.17
2022-07-25T03:27:01.540Z,98.17
2022-07-25T03:28:01.511Z,97.97
2022-07-25T03:29:01.861Z,98.07
2022-07-25T03:30:01.489Z,98.07
2022-07-25T03:31:01.469Z,98.37
2022-07-25T03:32:01.511Z,98.58
2022-07-25T03:33:01.441Z,98.58
2022-07-25T03:34:01.853Z,98.11
2022-07-25T03:35:01.467Z,98.11
2022-07-25T03:36:01.419Z,98.52
2022-07-25T03:37:01.412Z,98.52
2022-07-25T03:38:01.749Z,97.81
2022-07-25T03:39:01.366Z,98.11
2022-07-25T03:40:01.377Z,98.72
2022-07-25T03:41:01.350Z,98.72
2022-07-25T03:42:01.328Z,98.82
2022-07-25T03:43:01.658Z,98.93
2022-07-25T03:44:01.299Z,99.22
2022-07-25T03:45:01.294Z,99.02
2022-07-25T03:46:01.356Z,99.02
2022-07-25T03:47:01.269Z,98.82
2022-07-25T03:48:01.668Z,99.13
2022-07-25T03:49:01.302Z,99.13
2022-07-25T03:50:01.234Z,99.02
2022-07-25T03:51:04.999Z,98.93
2022-07-25T03:52:02.199Z,98.82
2022-07-25T03:53:01.536Z,98.82
2022-07-25T03:54:01.175Z,98.93
2022-07-25T03:55:01.235Z,99.02
2022-07-25T03:56:01.186Z,99.02
2022-07-25T03:57:01.138Z,98.72
2022-07-25T03:58:01.550Z,98.62
2022-07-25T03:59:01.106Z,99.13
2022-07-25T04:00:01.095Z,99.13
2022-07-25T04:01:01.138Z,99.02
2022-07-25T04:02:01.090Z,99.22
2022-07-25T04:03:01.401Z,98.93
2022-07-25T04:04:01.046Z,98.72
2022-07-25T04:05:01.042Z,98.82
2022-07-25T04:06:01.029Z,99.02
2022-07-25T04:07:01.005Z,99.02
2022-07-25T04:08:01.354Z,99.02
2022-07-25T04:09:00.977Z,99.13
2022-07-25T04:10:00.973Z,99.33
2022-07-25T04:11:00.956Z,99.43
2022-07-25T04:12:01.344Z,99.28
2022-07-25T04:13:00.928Z,98.68
2022-07-25T04:14:00.943Z,98.68
2022-07-25T04:15:00.902Z,98.68
2022-07-25T04:16:00.984Z,98.58
2022-07-25T04:17:01.073Z,98.58
2022-07-25T04:18:01.025Z,98.47
2022-07-25T04:19:01.605Z,98.78
2022-07-25T04:20:00.901Z,98.78
2022-07-25T04:21:00.883Z,98.93
2022-07-25T04:22:01.353Z,98.73
2022-07-25T04:23:00.852Z,98.02
2022-07-25T04:24:02.883Z,97.78
2022-07-25T04:25:00.825Z,97.47
2022-07-25T04:26:01.270Z,97.27
2022-07-25T04:27:00.873Z,97.07
2022-07-25T04:28:00.820Z,97.07
2022-07-25T04:29:01.692Z,97.27
2022-07-25T04:30:00.844Z,97.07
2022-07-25T04:31:01.010Z,97.07
2022-07-25T04:32:00.911Z,96.97
2022-07-25T04:33:00.683Z,96.97
2022-07-25T04:34:00.683Z,96.77
2022-07-25T04:35:00.682Z,96.87
2022-07-25T04:36:00.644Z,96.87
2022-07-25T04:37:00.945Z,96.77
2022-07-25T04:38:00.613Z,96.62
2022-07-25T04:39:00.621Z,96.42
2022-07-25T04:40:00.578Z,96.32
2022-07-25T04:41:00.602Z,96.22
2022-07-25T04:42:00.551Z,96.01
2022-07-25T04:43:00.552Z,95.81
2022-07-25T04:44:00.522Z,95.57
2022-07-25T04:45:00.512Z,95.37
2022-07-25T04:46:00.931Z,95.27
2022-07-25T04:47:00.491Z,95.07
2022-07-25T04:48:00.477Z,94.96
2022-07-25T04:49:00.544Z,94.76
2022-07-25T04:50:00.444Z,94.76
2022-07-25T04:51:00.750Z,94.67
2022-07-25T04:52:00.419Z,94.42
2022-07-25T04:53:00.418Z,94.42
2022-07-25T04:54:00.401Z,94.21
2022-07-25T04:55:00.387Z,94.01
2022-07-25T04:56:07.754Z,93.61
2022-07-25T04:57:00.360Z,93.41
2022-07-25T04:58:07.347Z,93.31
2022-07-25T04:59:07.433Z,93.11
2022-07-25T05:00:07.324Z,92.96
2022-07-25T05:01:07.827Z,92.86
2022-07-25T05:02:08.365Z,92.86
2022-07-25T05:03:07.293Z,92.76
2022-07-25T05:04:07.535Z,92.56
2022-07-25T05:05:07.257Z,92.46
2022-07-25T05:06:07.704Z,92.36
2022-07-25T05:07:00.265Z,92.26
2022-07-25T05:08:00.273Z,92.26
2022-07-25T05:09:00.300Z,92.16
2022-07-25T05:10:00.234Z,92.11
2022-07-25T05:11:00.415Z,92.02
2022-07-25T05:12:00.421Z,91.82
2022-07-25T05:13:00.394Z,91.71
2022-07-25T05:14:00.204Z,91.61
2022-07-25T05:15:00.173Z,91.51
2022-07-25T05:16:00.199Z,91.21
2022-07-25T05:17:00.146Z,91.11
2022-07-25T05:18:00.122Z,91.06
2022-07-25T05:19:00.103Z,91.06
2022-07-25T05:20:00.306Z,90.97
2022-07-25T05:21:00.101Z,91.06
2022-07-25T05:22:00.037Z,90.86
2022-07-25T05:23:00.032Z,90.77
2022-07-25T05:24:00.033Z,90.72
2022-07-25T05:25:00.369Z,90.62
2022-07-25T05:26:00.388Z,90.52
2022-07-25T05:27:00.429Z,90.52
2022-07-25T05:28:00.098Z,90.32
2022-07-25T05:28:59.973Z,90.12
2022-07-25T05:30:00.296Z,89.92
2022-07-25T05:31:00.002Z,89.82
2022-07-25T05:31:59.972Z,89.62
2022-07-25T05:33:00.105Z,89.58
2022-07-25T05:33:59.943Z,89.37
2022-07-25T05:35:01.191Z,88.97
2022-07-25T05:35:59.922Z,89.17
2022-07-25T05:36:59.952Z,89.03
2022-07-25T05:37:59.847Z,88.73
2022-07-25T05:38:59.841Z,88.63
2022-07-25T05:40:00.253Z,88.53
2022-07-25T05:40:59.847Z,88.12
2022-07-25T05:41:59.794Z,88.02
2022-07-25T05:43:03.266Z,87.88
2022-07-25T05:43:59.873Z,87.58
2022-07-25T05:44:59.813Z,87.58
2022-07-25T05:45:59.751Z,87.38
2022-07-25T05:46:59.837Z,87.28
2022-07-25T05:47:59.728Z,86.94
2022-07-25T05:48:59.815Z,86.74
2022-07-25T05:49:59.710Z,86.74
2022-07-25T05:50:59.718Z,86.64
2022-07-25T05:51:59.681Z,86.33
2022-07-25T05:52:59.710Z,85.74
2022-07-25T05:53:59.688Z,85.80
2022-07-25T05:54:59.671Z,85.80
2022-07-25T05:55:59.681Z,85.49
2022-07-25T05:56:59.920Z,85.69
2022-07-25T05:57:59.626Z,84.85
2022-07-25T05:59:00.083Z,84.65
2022-07-25T05:59:59.849Z,84.45
2022-07-25T06:00:59.568Z,84.65
2022-07-25T06:01:59.639Z,83.95
2022-07-25T06:02:59.749Z,84.11
2022-07-25T06:03:59.839Z,83.81
2022-07-25T06:04:59.490Z,82.67
2022-07-25T06:05:59.467Z,81.49
2022-07-25T06:06:59.961Z,78.64
2022-07-25T06:08:00.150Z,74.84
2022-07-25T06:08:59.865Z,72.44
2022-07-25T06:10:00.545Z,70.55
2022-07-25T06:10:59.444Z,68.57
2022-07-25T06:12:01.041Z,67.64
2022-07-25T06:12:59.400Z,65.09
2022-07-25T06:13:59.849Z,64.04
2022-07-25T06:14:59.349Z,63.15
2022-07-25T06:15:59.382Z,61.91
2022-07-25T06:16:59.377Z,61.71
2022-07-25T06:17:59.327Z,60.56
2022-07-25T06:18:59.683Z,59.34
2022-07-25T06:19:59.287Z,59.42
2022-07-25T06:20:59.299Z,59.22
2022-07-25T06:21:59.286Z,58.20
2022-07-25T06:22:59.291Z,57.78
2022-07-25T06:23:59.286Z,56.87
2022-07-25T06:24:59.241Z,55.85
2022-07-25T06:25:59.218Z,55.43
2022-07-25T06:26:59.269Z,55.43
2022-07-25T06:27:59.231Z,54.91
2022-07-25T06:28:59.200Z,54.49
2022-07-25T06:29:59.166Z,54.72
2022-07-25T06:30:59.250Z,54.69
2022-07-25T06:31:59.199Z,55.01
2022-07-25T06:32:59.492Z,54.52
2022-07-25T06:33:59.122Z,54.72
2022-07-25T06:34:59.111Z,54.89
2022-07-25T06:35:59.100Z,53.98
2022-07-25T06:36:59.089Z,53.46
2022-07-25T06:37:59.118Z,54.17
2022-07-25T06:38:59.059Z,54.66
2022-07-25T06:39:59.049Z,53.04
2022-07-25T06:40:59.040Z,52.52
2022-07-25T06:41:59.021Z,52.13
2022-07-25T06:42:59.069Z,52.33
2022-07-25T06:43:59.089Z,52.52
2022-07-25T06:44:59.033Z,52.62
2022-07-25T06:45:58.968Z,51.81
2022-07-25T06:46:59.047Z,51.32
2022-07-25T06:47:59.189Z,50.90
2022-07-25T06:48:58.972Z,51.29
2022-07-25T06:49:58.940Z,51.07
2022-07-25T06:50:58.928Z,51.27
2022-07-25T06:51:58.899Z,50.98
2022-07-25T06:52:58.910Z,50.49
2022-07-25T06:53:58.890Z,49.77
2022-07-25T06:54:58.883Z,49.36
2022-07-25T06:55:58.840Z,49.65
2022-07-25T06:56:59.239Z,49.46
2022-07-25T06:57:58.847Z,48.85
2022-07-25T06:58:58.847Z,47.85
2022-07-25T06:59:58.818Z,47.63
2022-07-25T07:00:58.812Z,47.21
2022-07-25T07:01:59.100Z,48.09
2022-07-25T07:02:58.898Z,48.48
2022-07-25T07:03:58.782Z,47.60
2022-07-25T07:04:58.740Z,47.38
2022-07-25T07:05:58.727Z,47.66
2022-07-25T07:06:58.782Z,46.14
2022-07-25T07:07:58.701Z,46.14
2022-07-25T07:08:58.709Z,46.63
2022-07-25T07:09:58.681Z,46.36
2022-07-25T07:10:58.690Z,46.29
2022-07-25T07:11:59.047Z,47.14
2022-07-25T07:12:58.660Z,48.97
2022-07-25T07:13:58.650Z,48.87
2022-07-25T07:14:58.636Z,49.73
2022-07-25T07:15:58.679Z,49.04
2022-07-25T07:16:58.951Z,49.09
2022-07-25T07:17:58.601Z,50.83
2022-07-25T07:18:58.587Z,52.94
2022-07-25T07:19:58.592Z,53.04
2022-07-25T07:20:58.590Z,52.35
2022-07-25T07:21:58.978Z,52.65
2022-07-25T07:22:58.545Z,51.64
2022-07-25T07:23:58.534Z,51.12
2022-07-25T07:24:58.523Z,51.17
2022-07-25T07:25:58.510Z,50.68
2022-07-25T07:26:58.530Z,49.68
2022-07-25T07:27:58.823Z,49.26
2022-07-25T07:28:58.480Z,49.53
2022-07-25T07:29:58.452Z,48.94
2022-07-25T07:31:15.592Z,47.80
2022-07-25T07:31:59.534Z,47.19
2022-07-25T07:32:58.432Z,46.75
2022-07-25T07:33:58.481Z,45.85
2022-07-25T07:34:58.409Z,45.36
2022-07-25T07:35:58.408Z,45.75
2022-07-25T07:36:58.468Z,46.34
2022-07-25T07:37:58.391Z,45.85
2022-07-25T07:38:58.812Z,46.19
2022-07-25T07:39:58.350Z,47.43
2022-07-25T07:40:58.352Z,48.43
2022-07-25T07:41:58.332Z,49.21
2022-07-25T07:42:58.323Z,48.80
2022-07-25T07:43:58.738Z,47.85
2022-07-25T07:44:58.291Z,46.14
2022-07-25T07:45:58.283Z,44.64
2022-07-25T07:46:58.348Z,44.52
2022-07-25T07:47:58.254Z,44.71
2022-07-25T07:48:58.297Z,44.62
2022-07-25T07:49:58.551Z,43.70
2022-07-25T07:50:58.213Z,42.39
2022-07-25T07:51:58.220Z,42.39
2022-07-25T07:52:58.235Z,43.29
2022-07-25T07:53:58.211Z,43.71
2022-07-25T07:54:59.557Z,44.13
2022-07-25T07:55:58.359Z,44.52
2022-07-25T07:56:58.196Z,44.62
2022-07-25T07:57:58.163Z,44.42
2022-07-25T07:58:58.231Z,45.03
2022-07-25T07:59:58.201Z,44.66
2022-07-25T08:00:58.132Z,45.36
2022-07-25T08:01:58.556Z,46.46
2022-07-25T08:02:58.133Z,45.97
2022-07-25T08:03:58.083Z,46.29
2022-07-25T08:04:58.081Z,47.58
2022-07-25T08:05:58.043Z,48.38
2022-07-25T08:06:58.071Z,48.26
2022-07-25T08:07:59.245Z,47.63
2022-07-25T08:09:05.400Z,46.83
2022-07-25T08:09:58.051Z,46.69
2022-07-25T08:11:05.132Z,45.28
2022-07-25T08:11:58.007Z,44.76
2022-07-25T08:12:58.081Z,44.01
2022-07-25T08:13:58.397Z,44.95
2022-07-25T08:14:57.976Z,45.65
2022-07-25T08:15:58.136Z,46.24
2022-07-25T08:16:57.997Z,46.02
2022-07-25T08:17:57.931Z,45.71
2022-07-25T08:18:57.913Z,45.00
2022-07-25T08:20:09.438Z,45.08
2022-07-25T08:20:58.897Z,43.89
2022-07-25T08:21:57.874Z,43.89
2022-07-25T08:22:57.901Z,44.38
2022-07-25T08:23:57.857Z,43.79
2022-07-25T08:24:58.185Z,43.79
2022-07-25T08:25:57.908Z,43.21
2022-07-25T08:26:57.840Z,43.29
2022-07-25T08:27:57.833Z,42.97
2022-07-25T08:29:17.727Z,42.78
2022-07-25T08:29:59.249Z,43.89
2022-07-25T08:30:57.856Z,43.43
2022-07-25T08:31:57.773Z,43.64
2022-07-25T08:32:57.878Z,44.10
2022-07-25T08:33:57.764Z,43.89
2022-07-25T08:34:57.781Z,43.87
2022-07-25T08:35:57.773Z,43.26
2022-07-25T08:36:57.733Z,42.76
2022-07-25T08:37:57.706Z,42.36
2022-07-25T08:38:57.692Z,43.29
2022-07-25T08:39:57.694Z,43.29
2022-07-25T08:40:57.683Z,43.87
2022-07-25T08:41:58.120Z,43.58
2022-07-25T08:42:57.748Z,44.16
2022-07-25T08:43:57.689Z,42.99
2022-07-25T08:44:57.633Z,43.55
2022-07-25T08:45:57.718Z,42.49
2022-07-25T08:46:57.711Z,43.19
2022-07-25T08:47:58.029Z,43.48
2022-07-25T08:48:57.650Z,44.01
2022-07-25T08:50:00.928Z,45.03
2022-07-25T08:50:58.562Z,46.56
2022-07-25T08:51:57.559Z,46.97
2022-07-25T08:53:16.512Z,47.87
2022-07-25T08:53:58.996Z,47.97
2022-07-25T08:54:57.524Z,48.46
2022-07-25T08:55:57.511Z,48.68
2022-07-25T08:56:57.551Z,49.09
2022-07-25T08:57:57.494Z,48.82
2022-07-25T08:58:58.105Z,49.21
2022-07-25T08:59:57.597Z,49.70
2022-07-25T09:00:57.471Z,49.11
2022-07-25T09:01:57.492Z,48.82
2022-07-25T09:02:57.939Z,48.94
2022-07-25T09:03:57.429Z,47.18
2022-07-25T09:04:57.412Z,47.99
2022-07-25T09:05:57.402Z,48.28
2022-07-25T09:06:57.422Z,48.87
2022-07-25T09:07:57.753Z,49.55
2022-07-25T09:08:57.390Z,49.16
2022-07-25T09:09:57.362Z,48.77
2022-07-25T09:10:57.332Z,49.46
2022-07-25T09:11:57.342Z,49.07
2022-07-25T09:12:57.405Z,49.16
2022-07-25T09:13:57.379Z,48.87
2022-07-25T09:14:57.282Z,48.97
2022-07-25T09:15:57.336Z,48.77
2022-07-25T09:16:57.324Z,48.77
2022-07-25T09:17:57.601Z,48.97
2022-07-25T09:18:57.263Z,48.97
2022-07-25T09:19:57.238Z,49.07
2022-07-25T09:20:57.213Z,48.38
2022-07-25T09:21:57.196Z,48.55
2022-07-25T09:22:57.614Z,48.07
2022-07-25T09:23:57.165Z,47.47
2022-07-25T09:25:04.419Z,47.28
2022-07-25T09:26:04.286Z,47.28
2022-07-25T09:27:05.328Z,47.28
2022-07-25T09:28:04.700Z,47.08
2022-07-25T09:28:57.130Z,46.69
2022-07-25T09:29:57.113Z,46.59
2022-07-25T09:30:57.134Z,46.40
2022-07-25T09:32:05.587Z,46.89
2022-07-25T09:32:57.083Z,46.57
2022-07-25T09:33:57.081Z,46.08
2022-07-25T09:34:57.056Z,46.77
2022-07-25T09:35:57.046Z,46.97
2022-07-25T09:36:57.470Z,46.47
2022-07-25T09:37:57.016Z,45.86
2022-07-25T09:38:56.987Z,45.30
2022-07-25T09:39:56.992Z,45.50
2022-07-25T09:40:57.009Z,45.67
2022-07-25T09:41:57.396Z,45.67
2022-07-25T09:42:56.957Z,45.57
2022-07-25T09:43:56.966Z,46.06
2022-07-25T09:44:56.924Z,45.28
2022-07-25T09:45:56.959Z,45.08
2022-07-25T09:46:57.265Z,45.37
2022-07-25T09:47:56.894Z,44.57
2022-07-25T09:48:56.932Z,44.09
2022-07-25T09:49:56.856Z,43.89
2022-07-25T09:50:56.864Z,43.99
2022-07-25T09:51:57.275Z,43.99
2022-07-25T09:52:56.848Z,43.89
2022-07-25T09:53:56.816Z,43.40
2022-07-25T09:54:56.819Z,44.06
2022-07-25T09:55:56.825Z,43.67
2022-07-25T09:56:57.138Z,43.18
2022-07-25T09:57:56.767Z,43.18
2022-07-25T09:58:56.781Z,43.67
2022-07-25T09:59:56.747Z,43.10
2022-07-25T10:00:56.747Z,43.69
2022-07-25T10:01:57.247Z,42.42
2022-07-25T10:02:56.781Z,42.89
2022-07-25T10:03:56.815Z,42.99
2022-07-25T10:04:57.018Z,42.40
2022-07-25T10:05:56.713Z,42.50
2022-07-25T10:06:57.037Z,42.68
2022-07-25T10:07:56.724Z,42.38
2022-07-25T10:08:56.637Z,41.31
2022-07-25T10:09:56.627Z,42.09
2022-07-25T10:10:56.606Z,42.36
2022-07-25T10:11:57.058Z,42.16
2022-07-25T10:12:56.597Z,41.97
2022-07-25T10:13:56.575Z,41.48
2022-07-25T10:14:56.576Z,41.67
2022-07-25T10:15:56.866Z,41.58
2022-07-25T10:16:56.574Z,41.09
2022-07-25T10:17:56.556Z,41.09
2022-07-25T10:18:56.533Z,41.28
2022-07-25T10:19:58.816Z,41.09
2022-07-25T10:20:56.986Z,41.19
2022-07-25T10:21:56.464Z,40.39
2022-07-25T10:22:57.278Z,40.11
2022-07-25T10:23:56.458Z,40.58
2022-07-25T10:24:56.463Z,40.97
2022-07-25T10:25:56.775Z,40.88
2022-07-25T10:26:56.418Z,40.19
2022-07-25T10:27:56.426Z,40.08
2022-07-25T10:28:56.406Z,40.27
2022-07-25T10:29:56.418Z,39.69
2022-07-25T10:30:56.833Z,40.08
2022-07-25T10:31:56.337Z,39.20
2022-07-25T10:32:56.524Z,39.20
2022-07-25T10:33:56.541Z,39.10
2022-07-25T10:34:56.348Z,39.10
2022-07-25T10:35:56.758Z,39.29
2022-07-25T10:36:56.316Z,39.88
2022-07-25T10:37:56.308Z,40.17
2022-07-25T10:38:56.267Z,40.37
2022-07-25T10:39:56.247Z,39.49
2022-07-25T10:40:56.703Z,39.49
2022-07-25T10:41:56.224Z,38.81
2022-07-25T10:42:56.222Z,39.49
2022-07-25T10:43:56.226Z,39.49
2022-07-25T10:44:56.637Z,39.98
2022-07-25T10:45:56.242Z,40.06
2022-07-25T10:46:56.147Z,39.49
2022-07-25T10:47:56.181Z,39.37
2022-07-25T10:48:56.151Z,39.28
2022-07-25T10:50:21.895Z,39.37
2022-07-25T10:50:57.629Z,39.86
2022-07-25T10:51:56.105Z,40.03
2022-07-25T10:52:56.097Z,39.06
2022-07-25T10:53:56.084Z,39.45
2022-07-25T10:54:56.496Z,38.18
2022-07-25T10:56:05.767Z,38.96
2022-07-25T10:56:57.069Z,39.94
2022-07-25T10:58:16.643Z,39.06
2022-07-25T10:58:57.004Z,38.96
2022-07-25T10:59:56.398Z,38.09
2022-07-25T11:00:56.029Z,38.28
2022-07-25T11:01:55.995Z,38.95
2022-07-25T11:02:55.991Z,40.01
2022-07-25T11:04:03.084Z,39.14
2022-07-25T11:05:04.939Z,39.14
2022-07-25T11:06:03.068Z,39.03
2022-07-25T11:06:55.921Z,39.12
2022-07-25T11:08:20.285Z,39.41
2022-07-25T11:10:07.717Z,38.64
2022-07-25T11:11:07.143Z,38.64
2022-07-25T11:12:07.054Z,38.15
2022-07-25T11:13:07.054Z,38.03
2022-07-25T11:14:07.568Z,38.03
2022-07-25T11:15:07.030Z,37.74
2022-07-25T11:16:07.047Z,38.13
2022-07-25T11:17:07.088Z,37.74
2022-07-25T11:18:06.994Z,37.74
2022-07-25T11:19:07.338Z,38.52
2022-07-25T11:20:07.418Z,38.11
2022-07-25T11:21:06.980Z,37.72
2022-07-25T11:22:06.972Z,37.34
2022-07-25T11:23:06.917Z,37.43
2022-07-25T11:24:07.332Z,36.67
2022-07-25T11:25:06.896Z,37.35
2022-07-25T11:26:06.912Z,37.27
2022-07-25T11:27:12.177Z,37.68
2022-07-25T11:28:07.901Z,38.17
2022-07-25T11:29:07.486Z,38.75
2022-07-25T11:30:06.849Z,37.48
2022-07-25T11:31:06.852Z,38.56
2022-07-25T11:32:06.878Z,38.73
2022-07-25T11:33:06.854Z,38.44
2022-07-25T11:34:07.235Z,38.52
2022-07-25T11:35:07.071Z,38.40
2022-07-25T11:36:06.776Z,37.93
2022-07-25T11:37:06.781Z,37.72
2022-07-25T11:38:06.823Z,36.26
2022-07-25T11:39:07.481Z,36.63
2022-07-25T11:40:06.818Z,35.47
2022-07-25T11:41:06.711Z,34.40
2022-07-25T11:42:14.865Z,35.45
2022-07-25T11:43:14.161Z,34.66
2022-07-25T11:44:06.692Z,33.39
2022-07-25T11:45:06.694Z,33.59
2022-07-25T11:46:06.778Z,32.81
2022-07-25T11:47:06.627Z,33.29
2022-07-25T11:48:07.054Z,33.28
2022-07-25T11:49:07.086Z,32.99
2022-07-25T11:50:06.706Z,31.44
2022-07-25T11:51:06.700Z,32.31
2022-07-25T11:52:06.583Z,32.00
2022-07-25T11:53:06.930Z,31.53
2022-07-25T11:54:06.554Z,31.55
2022-07-25T11:55:06.580Z,32.73
2022-07-25T11:56:19.676Z,33.31
2022-07-25T11:57:07.522Z,33.41
2022-07-25T11:58:06.982Z,33.01
2022-07-25T11:59:06.864Z,33.11
2022-07-25T12:00:06.527Z,32.79
2022-07-25T12:01:06.465Z,31.53
2022-07-25T12:02:06.574Z,31.24
2022-07-25T12:03:06.599Z,32.99
2022-07-25T12:04:06.433Z,31.05
2022-07-25T12:05:06.399Z,31.24
2022-07-25T12:06:07.113Z,31.32
2022-07-25T12:07:06.409Z,30.94
2022-07-25T12:08:06.432Z,31.52
2022-07-25T12:09:06.784Z,32.18
2022-07-25T12:10:06.371Z,31.21
2022-07-25T12:11:06.354Z,31.70
2022-07-25T12:12:06.356Z,31.20
2022-07-25T12:13:06.746Z,30.81
2022-07-25T12:14:06.300Z,32.17
2022-07-25T12:15:06.274Z,31.67
2022-07-25T12:16:06.263Z,31.86
2022-07-25T12:17:06.693Z,31.47
2022-07-25T12:18:06.257Z,29.92
2022-07-25T12:19:06.595Z,29.63
2022-07-25T12:20:10.705Z,30.21
2022-07-25T12:21:06.224Z,30.21
2022-07-25T12:22:06.233Z,29.53
2022-07-25T12:23:06.193Z,30.24
2022-07-25T12:24:06.223Z,31.23
2022-07-25T12:25:06.164Z,30.95
2022-07-25T12:26:06.174Z,30.94
2022-07-25T12:27:06.596Z,31.02
2022-07-25T12:28:06.133Z,30.91
2022-07-25T12:29:06.422Z,30.32
2022-07-25T12:30:06.126Z,30.04
2022-07-25T12:31:06.158Z,30.23
2022-07-25T12:32:06.532Z,30.02
2022-07-25T12:33:06.065Z,30.41
2022-07-25T12:34:06.093Z,30.00
2022-07-25T12:35:06.052Z,30.00
2022-07-25T12:36:08.572Z,30.11
2022-07-25T12:37:06.355Z,29.71
2022-07-25T12:38:06.005Z,29.81
2022-07-25T12:39:06.209Z,29.63
2022-07-25T12:40:05.985Z,30.02
2022-07-25T12:41:06.646Z,30.31
2022-07-25T12:42:05.946Z,30.58
2022-07-25T12:43:05.987Z,30.49
2022-07-25T12:44:05.994Z,30.58
2022-07-25T12:45:05.966Z,30.39
2022-07-25T12:46:06.075Z,30.47
2022-07-25T12:47:06.234Z,30.18
2022-07-25T12:48:05.902Z,30.38
2022-07-25T12:49:06.232Z,30.18
2022-07-25T12:50:05.858Z,30.38
2022-07-25T12:51:06.172Z,30.57
2022-07-25T12:52:05.887Z,30.17
2022-07-25T12:53:05.828Z,29.78
2022-07-25T12:54:06.108Z,29.69
2022-07-25T12:55:05.832Z,29.77